sensor_id;sensor_type;location;lat;lon;timestamp;pressure;altitude;pressure_sealevel;temperature;humidity
18988;BME280;5494;51.796;10.952;2022-09-09T00:00:53;98424.03;;;14.74;100.00
18988;BME280;5494;51.796;10.952;2022-09-09T00:03:27;98425.59;;;14.76;100.00
18988;BME280;5494;51.796;10.952;2022-09-09T00:06:09;98417.63;;;14.78;100.00
18988;BME280;5494;51.796;10.952;2022-09-09T00:08:58;98414.91;;;14.79;100.00
18988;BME280;5494;51.796;10.952;2022-09-09T00:11:36;98419.31;;;14.79;100.00
18988;BME280;5494;51.796;10.952;2022-09-09T00:14:19;98417.88;;;14.75;100.00
18988;BME280;5494;51.796;10.952;2022-09-09T00:16:57;98414.91;;;14.79;100.00
18988;BME280;5494;51.796;10.952;2022-09-09T00:19:39;98418.94;;;14.72;100.00
18988;BME280;5494;51.796;10.952;2022-09-09T00:22:18;98420.38;;;14.76;100.00
18988;BME280;5494;51.796;10.952;2022-09-09T00:24:52;98411.44;;;14.68;100.00
18988;BME280;5494;51.796;10.952;2022-09-09T00:27:29;98423.56;;;14.69;100.00
18988;BME280;5494;51.796;10.952;2022-09-09T00:30:14;98415.25;;;14.64;100.00
18988;BME280;5494;51.796;10.952;2022-09-09T00:32:44;98415.84;;;14.67;100.00
18988;BME280;5494;51.796;10.952;2022-09-09T00:35:20;98421.78;;;14.58;100.00
18988;BME280;5494;51.796;10.952;2022-09-09T00:37:58;98423.41;;;14.59;100.00
18988;BME280;5494;51.796;10.952;2022-09-09T00:40:34;98418.91;;;14.61;100.00
18988;BME280;5494;51.796;10.952;2022-09-09T00:43:24;98410.75;;;14.66;100.00
18988;BME280;5494;51.796;10.952;2022-09-09T00:49:43;98407.28;;;14.65;100.00
18988;BME280;5494;51.796;10.952;2022-09-09T00:52:27;98404.06;;;14.62;100.00
18988;BME280;5494;51.796;10.952;2022-09-09T00:55:09;98410.13;;;14.62;100.00
18988;BME280;5494;51.796;10.952;2022-09-09T00:57:41;98413.94;;;14.69;100.00
18988;BME280;5494;51.796;10.952;2022-09-09T01:00:22;98415.50;;;14.72;100.00
18988;BME280;5494;51.796;10.952;2022-09-09T01:03:18;98413.56;;;14.74;100.00
18988;BME280;5494;51.796;10.952;2022-09-09T01:06:01;98423.56;;;14.80;100.00
18988;BME280;5494;51.796;10.952;2022-09-09T01:08:59;98426.66;;;14.74;100.00
18988;BME280;5494;51.796;10.952;2022-09-09T01:11:45;98427.97;;;14.68;100.00
18988;BME280;5494;51.796;10.952;2022-09-09T01:14:31;98425.34;;;14.68;100.00
18988;BME280;5494;51.796;10.952;2022-09-09T01:17:14;98434.50;;;14.63;100.00
18988;BME280;5494;51.796;10.952;2022-09-09T01:20:04;98438.06;;;14.62;100.00
18988;BME280;5494;51.796;10.952;2022-09-09T01:23:19;98436.75;;;14.67;100.00
18988;BME280;5494;51.796;10.952;2022-09-09T01:26:20;98433.44;;;14.65;100.00
18988;BME280;5494;51.796;10.952;2022-09-09T01:28:52;98431.78;;;14.64;100.00
18988;BME280;5494;51.796;10.952;2022-09-09T01:31:32;98429.28;;;14.63;100.00
18988;BME280;5494;51.796;10.952;2022-09-09T01:34:11;98428.06;;;14.55;100.00
18988;BME280;5494;51.796;10.952;2022-09-09T01:36:47;98430.31;;;14.60;100.00
18988;BME280;5494;51.796;10.952;2022-09-09T01:39:19;98427.84;;;14.58;100.00
18988;BME280;5494;51.796;10.952;2022-09-09T01:41:58;98436.84;;;14.54;100.00
18988;BME280;5494;51.796;10.952;2022-09-09T01:44:29;98438.75;;;14.52;100.00
18988;BME280;5494;51.796;10.952;2022-09-09T01:46:58;98439.84;;;14.50;100.00
18988;BME280;5494;51.796;10.952;2022-09-09T01:49:28;98434.81;;;14.47;100.00
18988;BME280;5494;51.796;10.952;2022-09-09T01:51:57;98431.25;;;14.48;100.00
18988;BME280;5494;51.796;10.952;2022-09-09T01:54:33;98432.94;;;14.49;100.00
18988;BME280;5494;51.796;10.952;2022-09-09T01:57:20;98426.66;;;14.51;100.00
18988;BME280;5494;51.796;10.952;2022-09-09T02:00:03;98424.50;;;14.56;100.00
18988;BME280;5494;51.796;10.952;2022-09-09T02:02:51;98418.66;;;14.53;100.00
18988;BME280;5494;51.796;10.952;2022-09-09T02:05:36;98409.97;;;14.52;100.00
18988;BME280;5494;51.796;10.952;2022-09-09T02:08:20;98411.28;;;14.47;100.00
18988;BME280;5494;51.796;10.952;2022-09-09T02:11:05;98412.84;;;14.49;100.00
18988;BME280;5494;51.796;10.952;2022-09-09T02:13:47;98402.97;;;14.53;100.00
18988;BME280;5494;51.796;10.952;2022-09-09T02:16:24;98415.09;;;14.54;100.00
18988;BME280;5494;51.796;10.952;2022-09-09T02:19:00;98406.09;;;14.58;100.00
18988;BME280;5494;51.796;10.952;2022-09-09T02:21:45;98409.19;;;14.63;100.00
18988;BME280;5494;51.796;10.952;2022-09-09T02:24:16;98418.34;;;14.69;100.00
18988;BME280;5494;51.796;10.952;2022-09-09T02:26:55;98416.56;;;14.69;100.00
18988;BME280;5494;51.796;10.952;2022-09-09T02:29:33;98421.06;;;14.67;100.00
18988;BME280;5494;51.796;10.952;2022-09-09T02:32:07;98421.56;;;14.72;100.00
18988;BME280;5494;51.796;10.952;2022-09-09T02:34:47;98425.13;;;14.71;100.00
18988;BME280;5494;51.796;10.952;2022-09-09T02:37:20;98422.63;;;14.70;100.00
18988;BME280;5494;51.796;10.952;2022-09-09T02:39:53;98418.44;;;14.67;100.00
18988;BME280;5494;51.796;10.952;2022-09-09T02:42:24;98412.75;;;14.62;100.00
18988;BME280;5494;51.796;10.952;2022-09-09T02:44:56;98414.41;;;14.63;100.00
18988;BME280;5494;51.796;10.952;2022-09-09T02:47:32;98423.69;;;14.67;100.00
18988;BME280;5494;51.796;10.952;2022-09-09T02:50:15;98418.34;;;14.69;100.00
18988;BME280;5494;51.796;10.952;2022-09-09T02:53:07;98425.72;;;14.75;100.00
18988;BME280;5494;51.796;10.952;2022-09-09T02:55:48;98429.88;;;14.77;100.00
18988;BME280;5494;51.796;10.952;2022-09-09T02:58:24;98424.41;;;14.80;100.00
18988;BME280;5494;51.796;10.952;2022-09-09T03:01:03;98434.75;;;14.82;100.00
18988;BME280;5494;51.796;10.952;2022-09-09T03:03:32;98435.84;;;14.79;100.00
18988;BME280;5494;51.796;10.952;2022-09-09T03:06:06;98437.97;;;14.74;100.00
18988;BME280;5494;51.796;10.952;2022-09-09T03:08:36;98431.78;;;14.75;100.00
18988;BME280;5494;51.796;10.952;2022-09-09T03:11:05;98429.63;;;14.69;100.00
18988;BME280;5494;51.796;10.952;2022-09-09T03:13:36;98437.00;;;14.64;100.00
18988;BME280;5494;51.796;10.952;2022-09-09T03:16:07;98433.66;;;14.62;100.00
18988;BME280;5494;51.796;10.952;2022-09-09T03:18:42;98429.38;;;14.61;100.00
18988;BME280;5494;51.796;10.952;2022-09-09T03:21:13;98431.28;;;14.59;100.00
18988;BME280;5494;51.796;10.952;2022-09-09T03:23:42;98433.09;;;14.58;100.00
18988;BME280;5494;51.796;10.952;2022-09-09T03:26:12;98436.38;;;14.61;100.00
18988;BME280;5494;51.796;10.952;2022-09-09T03:28:45;98424.41;;;14.58;100.00
18988;BME280;5494;51.796;10.952;2022-09-09T03:31:22;98429.97;;;14.53;100.00
18988;BME280;5494;51.796;10.952;2022-09-09T03:33:52;98429.50;;;14.59;100.00
18988;BME280;5494;51.796;10.952;2022-09-09T03:36:21;98420.13;;;14.57;100.00
18988;BME280;5494;51.796;10.952;2022-09-09T03:38:49;98416.66;;;14.56;100.00
18988;BME280;5494;51.796;10.952;2022-09-09T03:41:18;98424.13;;;14.50;100.00
18988;BME280;5494;51.796;10.952;2022-09-09T03:43:47;98427.47;;;14.52;100.00
18988;BME280;5494;51.796;10.952;2022-09-09T03:46:17;98426.50;;;14.53;100.00
18988;BME280;5494;51.796;10.952;2022-09-09T03:48:48;98429.75;;;14.56;100.00
18988;BME280;5494;51.796;10.952;2022-09-09T03:51:16;98429.13;;;14.53;100.00
18988;BME280;5494;51.796;10.952;2022-09-09T03:53:46;98429.13;;;14.53;100.00
18988;BME280;5494;51.796;10.952;2022-09-09T03:56:15;98431.97;;;14.50;100.00
18988;BME280;5494;51.796;10.952;2022-09-09T03:58:43;98432.72;;;14.52;100.00
18988;BME280;5494;51.796;10.952;2022-09-09T04:01:14;98435.31;;;14.52;100.00
18988;BME280;5494;51.796;10.952;2022-09-09T04:03:45;98432.25;;;14.58;100.00
18988;BME280;5494;51.796;10.952;2022-09-09T04:06:15;98440.56;;;14.63;100.00
18988;BME280;5494;51.796;10.952;2022-09-09T04:08:46;98433.44;;;14.65;100.00
18988;BME280;5494;51.796;10.952;2022-09-09T04:11:17;98438.78;;;14.64;100.00
18988;BME280;5494;51.796;10.952;2022-09-09T04:14:07;98430.84;;;14.65;100.00
18988;BME280;5494;51.796;10.952;2022-09-09T04:16:37;98433.31;;;14.67;100.00
18988;BME280;5494;51.796;10.952;2022-09-09T04:19:06;98427.97;;;14.68;100.00
18988;BME280;5494;51.796;10.952;2022-09-09T04:21:36;98441.91;;;14.91;99.73
18988;BME280;5494;51.796;10.952;2022-09-09T04:24:05;98442.28;;;14.86;99.45
18988;BME280;5494;51.796;10.952;2022-09-09T04:26:35;98446.44;;;14.78;99.38
18988;BME280;5494;51.796;10.952;2022-09-09T04:29:05;98445.94;;;14.84;99.20
18988;BME280;5494;51.796;10.952;2022-09-09T04:31:35;98452.00;;;14.73;99.27
18988;BME280;5494;51.796;10.952;2022-09-09T04:34:04;98446.84;;;14.61;100.00
18988;BME280;5494;51.796;10.952;2022-09-09T04:36:33;98446.97;;;14.59;100.00
18988;BME280;5494;51.796;10.952;2022-09-09T04:39:07;98441.50;;;14.51;100.00
18988;BME280;5494;51.796;10.952;2022-09-09T04:41:35;98433.28;;;14.44;100.00
18988;BME280;5494;51.796;10.952;2022-09-09T04:44:05;98427.97;;;14.57;100.00
18988;BME280;5494;51.796;10.952;2022-09-09T04:46:34;98434.13;;;14.45;100.00
18988;BME280;5494;51.796;10.952;2022-09-09T04:49:02;98439.00;;;14.49;100.00
18988;BME280;5494;51.796;10.952;2022-09-09T04:51:32;98433.78;;;14.61;100.00
18988;BME280;5494;51.796;10.952;2022-09-09T04:54:01;98430.78;;;14.54;100.00
18988;BME280;5494;51.796;10.952;2022-09-09T04:56:31;98434.34;;;14.53;100.00
18988;BME280;5494;51.796;10.952;2022-09-09T04:59:01;98427.84;;;14.58;100.00
18988;BME280;5494;51.796;10.952;2022-09-09T05:01:44;98434.72;;;14.59;100.00
18988;BME280;5494;51.796;10.952;2022-09-09T05:04:13;98437.22;;;14.61;100.00
18988;BME280;5494;51.796;10.952;2022-09-09T05:06:43;98438.22;;;14.71;100.00
18988;BME280;5494;51.796;10.952;2022-09-09T05:09:12;98435.34;;;14.63;100.00
18988;BME280;5494;51.796;10.952;2022-09-09T05:11:42;98426.81;;;14.72;100.00
18988;BME280;5494;51.796;10.952;2022-09-09T05:14:19;98437.25;;;14.72;100.00
18988;BME280;5494;51.796;10.952;2022-09-09T05:16:47;98431.88;;;14.74;100.00
18988;BME280;5494;51.796;10.952;2022-09-09T05:19:17;98429.78;;;14.79;100.00
18988;BME280;5494;51.796;10.952;2022-09-09T05:21:49;98436.78;;;14.89;100.00
18988;BME280;5494;51.796;10.952;2022-09-09T05:24:22;98438.94;;;14.84;99.85
18988;BME280;5494;51.796;10.952;2022-09-09T05:26:55;98441.66;;;14.83;100.00
18988;BME280;5494;51.796;10.952;2022-09-09T05:29:25;98442.03;;;14.89;100.00
18988;BME280;5494;51.796;10.952;2022-09-09T05:31:55;98437.63;;;14.90;100.00
18988;BME280;5494;51.796;10.952;2022-09-09T05:34:24;98445.84;;;14.96;99.50
18988;BME280;5494;51.796;10.952;2022-09-09T05:36:52;98445.72;;;14.98;99.47
18988;BME280;5494;51.796;10.952;2022-09-09T05:39:22;98441.56;;;15.07;99.04
18988;BME280;5494;51.796;10.952;2022-09-09T05:41:51;98438.47;;;15.13;99.00
18988;BME280;5494;51.796;10.952;2022-09-09T05:44:21;98447.03;;;15.15;98.72
18988;BME280;5494;51.796;10.952;2022-09-09T05:46:50;98456.44;;;15.17;98.48
18988;BME280;5494;51.796;10.952;2022-09-09T05:49:19;98452.63;;;15.21;98.10
18988;BME280;5494;51.796;10.952;2022-09-09T05:51:48;98455.59;;;15.17;98.41
18988;BME280;5494;51.796;10.952;2022-09-09T05:54:19;98450.13;;;15.20;98.50
18988;BME280;5494;51.796;10.952;2022-09-09T05:56:50;98449.88;;;15.45;97.99
18988;BME280;5494;51.796;10.952;2022-09-09T05:59:21;98457.28;;;15.62;96.40
18988;BME280;5494;51.796;10.952;2022-09-09T06:01:52;98441.66;;;15.61;96.00
18988;BME280;5494;51.796;10.952;2022-09-09T06:04:26;98448.44;;;15.63;95.78
18988;BME280;5494;51.796;10.952;2022-09-09T06:06:55;98456.44;;;15.62;95.95
18988;BME280;5494;51.796;10.952;2022-09-09T06:09:23;98451.53;;;15.68;95.41
18988;BME280;5494;51.796;10.952;2022-09-09T06:11:53;98457.72;;;15.67;95.83
18988;BME280;5494;51.796;10.952;2022-09-09T06:14:25;98455.34;;;15.75;95.14
18988;BME280;5494;51.796;10.952;2022-09-09T06:16:57;98463.88;;;15.77;94.92
18988;BME280;5494;51.796;10.952;2022-09-09T06:19:29;98461.47;;;15.97;94.92
18988;BME280;5494;51.796;10.952;2022-09-09T06:21:59;98456.66;;;16.54;93.73
18988;BME280;5494;51.796;10.952;2022-09-09T06:24:29;98452.22;;;17.17;89.30
18988;BME280;5494;51.796;10.952;2022-09-09T06:26:59;98449.44;;;17.49;84.95
18988;BME280;5494;51.796;10.952;2022-09-09T06:29:33;98454.91;;;17.37;85.28
18988;BME280;5494;51.796;10.952;2022-09-09T06:32:03;98452.28;;;17.37;85.40
18988;BME280;5494;51.796;10.952;2022-09-09T06:34:32;98450.06;;;17.02;87.32
18988;BME280;5494;51.796;10.952;2022-09-09T06:37:00;98445.53;;;16.83;89.12
18988;BME280;5494;51.796;10.952;2022-09-09T06:39:35;98440.88;;;16.86;88.80
18988;BME280;5494;51.796;10.952;2022-09-09T06:42:04;98436.91;;;16.92;89.34
18988;BME280;5494;51.796;10.952;2022-09-09T06:44:52;98436.19;;;16.90;89.43
18988;BME280;5494;51.796;10.952;2022-09-09T06:47:38;98428.53;;;17.08;89.16
18988;BME280;5494;51.796;10.952;2022-09-09T06:50:08;98426.41;;;17.32;87.24
18988;BME280;5494;51.796;10.952;2022-09-09T06:52:39;98422.53;;;17.36;86.30
18988;BME280;5494;51.796;10.952;2022-09-09T06:55:09;98423.34;;;17.27;87.56
18988;BME280;5494;51.796;10.952;2022-09-09T06:57:38;98427.66;;;17.38;87.14
18988;BME280;5494;51.796;10.952;2022-09-09T07:00:14;98436.63;;;17.65;85.95
18988;BME280;5494;51.796;10.952;2022-09-09T07:02:42;98428.75;;;17.75;85.44
18988;BME280;5494;51.796;10.952;2022-09-09T07:05:13;98433.47;;;18.00;84.99
18988;BME280;5494;51.796;10.952;2022-09-09T07:07:44;98427.53;;;18.18;84.22
18988;BME280;5494;51.796;10.952;2022-09-09T07:10:14;98427.66;;;18.26;83.51
18988;BME280;5494;51.796;10.952;2022-09-09T07:12:44;98423.25;;;18.17;83.22
18988;BME280;5494;51.796;10.952;2022-09-09T07:15:14;98422.97;;;18.29;82.89
18988;BME280;5494;51.796;10.952;2022-09-09T07:17:45;98421.59;;;18.16;83.41
18988;BME280;5494;51.796;10.952;2022-09-09T07:20:14;98424.75;;;18.19;83.27
18988;BME280;5494;51.796;10.952;2022-09-09T07:22:43;98419.66;;;18.18;82.43
18988;BME280;5494;51.796;10.952;2022-09-09T07:25:11;98431.00;;;18.18;83.41
18988;BME280;5494;51.796;10.952;2022-09-09T07:27:41;98427.94;;;18.23;82.55
18988;BME280;5494;51.796;10.952;2022-09-09T07:30:11;98431.69;;;18.20;82.82
18988;BME280;5494;51.796;10.952;2022-09-09T07:32:51;98435.56;;;18.26;82.56
18988;BME280;5494;51.796;10.952;2022-09-09T07:35:20;98439.03;;;18.17;83.18
18988;BME280;5494;51.796;10.952;2022-09-09T07:37:49;98431.28;;;18.15;83.15
18988;BME280;5494;51.796;10.952;2022-09-09T07:40:19;98442.22;;;18.20;83.60
18988;BME280;5494;51.796;10.952;2022-09-09T07:42:49;98434.03;;;18.14;82.92
18988;BME280;5494;51.796;10.952;2022-09-09T07:45:17;98440.84;;;18.16;83.06
18988;BME280;5494;51.796;10.952;2022-09-09T07:47:46;98438.06;;;18.18;83.23
18988;BME280;5494;51.796;10.952;2022-09-09T07:50:18;98441.66;;;18.07;83.97
18988;BME280;5494;51.796;10.952;2022-09-09T07:52:47;98446.50;;;18.02;84.13
18988;BME280;5494;51.796;10.952;2022-09-09T07:55:16;98442.34;;;17.99;84.42
18988;BME280;5494;51.796;10.952;2022-09-09T07:57:45;98445.38;;;17.95;84.81
18988;BME280;5494;51.796;10.952;2022-09-09T08:00:15;98441.53;;;18.08;84.58
18988;BME280;5494;51.796;10.952;2022-09-09T08:02:49;98438.06;;;18.27;83.89
18988;BME280;5494;51.796;10.952;2022-09-09T08:05:23;98442.19;;;18.39;83.25
18988;BME280;5494;51.796;10.952;2022-09-09T08:07:52;98438.72;;;18.68;82.00
18988;BME280;5494;51.796;10.952;2022-09-09T08:10:21;98437.16;;;18.84;81.57
18988;BME280;5494;51.796;10.952;2022-09-09T08:12:51;98444.16;;;19.13;80.36
18988;BME280;5494;51.796;10.952;2022-09-09T08:15:39;98430.91;;;19.59;78.21
18988;BME280;5494;51.796;10.952;2022-09-09T08:18:08;98449.94;;;19.81;77.29
18988;BME280;5494;51.796;10.952;2022-09-09T08:20:39;98448.34;;;20.05;76.17
18988;BME280;5494;51.796;10.952;2022-09-09T08:23:08;98443.97;;;20.93;74.01
18988;BME280;5494;51.796;10.952;2022-09-09T08:25:36;98450.16;;;21.70;70.48
18988;BME280;5494;51.796;10.952;2022-09-09T08:28:05;98451.13;;;22.59;66.99
18988;BME280;5494;51.796;10.952;2022-09-09T08:30:34;98458.25;;;23.38;63.39
18988;BME280;5494;51.796;10.952;2022-09-09T08:33:03;98438.72;;;24.01;61.13
18988;BME280;5494;51.796;10.952;2022-09-09T08:35:32;98437.72;;;24.02;59.17
18988;BME280;5494;51.796;10.952;2022-09-09T08:38:03;98444.63;;;24.57;58.96
18988;BME280;5494;51.796;10.952;2022-09-09T08:40:45;98438.53;;;25.23;56.15
18988;BME280;5494;51.796;10.952;2022-09-09T08:43:20;98446.03;;;25.64;54.55
18988;BME280;5494;51.796;10.952;2022-09-09T08:45:59;98447.69;;;25.50;55.34
18988;BME280;5494;51.796;10.952;2022-09-09T08:48:47;98439.78;;;26.28;52.73
18988;BME280;5494;51.796;10.952;2022-09-09T08:51:25;98445.41;;;26.34;52.29
18988;BME280;5494;51.796;10.952;2022-09-09T08:53:58;98453.13;;;26.28;52.86
18988;BME280;5494;51.796;10.952;2022-09-09T08:56:31;98457.22;;;26.10;53.51
18988;BME280;5494;51.796;10.952;2022-09-09T08:59:03;98452.66;;;24.71;55.71
18988;BME280;5494;51.796;10.952;2022-09-09T09:01:51;98451.06;;;24.62;57.76
18988;BME280;5494;51.796;10.952;2022-09-09T09:04:50;98462.53;;;24.17;58.14
18988;BME280;5494;51.796;10.952;2022-09-09T09:07:36;98457.63;;;23.75;58.79
18988;BME280;5494;51.796;10.952;2022-09-09T09:13:15;98462.41;;;23.80;59.72
18988;BME280;5494;51.796;10.952;2022-09-09T09:15:52;98464.19;;;23.87;59.67
18988;BME280;5494;51.796;10.952;2022-09-09T09:18:22;98468.59;;;23.72;59.15
18988;BME280;5494;51.796;10.952;2022-09-09T09:21:03;98468.44;;;23.18;60.39
18988;BME280;5494;51.796;10.952;2022-09-09T09:23:43;98478.75;;;22.89;62.05
18988;BME280;5494;51.796;10.952;2022-09-09T09:26:15;98469.66;;;22.67;62.50
18988;BME280;5494;51.796;10.952;2022-09-09T09:28:45;98480.88;;;22.21;63.65
18988;BME280;5494;51.796;10.952;2022-09-09T09:31:19;98478.38;;;21.61;65.17
18988;BME280;5494;51.796;10.952;2022-09-09T09:33:52;98476.13;;;21.74;65.18
18988;BME280;5494;51.796;10.952;2022-09-09T09:36:37;98481.91;;;22.85;62.33
18988;BME280;5494;51.796;10.952;2022-09-09T09:39:07;98485.28;;;23.50;59.31
18988;BME280;5494;51.796;10.952;2022-09-09T09:42:10;98484.34;;;24.05;56.74
18988;BME280;5494;51.796;10.952;2022-09-09T09:44:43;98478.69;;;24.39;55.82
18988;BME280;5494;51.796;10.952;2022-09-09T09:47:21;98482.50;;;24.82;54.28
18988;BME280;5494;51.796;10.952;2022-09-09T09:50:18;98492.53;;;24.94;54.04
18988;BME280;5494;51.796;10.952;2022-09-09T09:52:55;98498.31;;;25.13;53.28
18988;BME280;5494;51.796;10.952;2022-09-09T09:55:25;98498.09;;;24.62;54.28
18988;BME280;5494;51.796;10.952;2022-09-09T09:58:02;98506.44;;;24.59;53.16
18988;BME280;5494;51.796;10.952;2022-09-09T10:00:47;98499.44;;;24.81;54.09
18988;BME280;5494;51.796;10.952;2022-09-09T10:03:25;98501.94;;;24.82;53.78
18988;BME280;5494;51.796;10.952;2022-09-09T10:05:56;98494.66;;;25.14;53.35
18988;BME280;5494;51.796;10.952;2022-09-09T10:08:27;98497.97;;;24.78;52.81
18988;BME280;5494;51.796;10.952;2022-09-09T10:11:21;98504.25;;;24.09;54.89
18988;BME280;5494;51.796;10.952;2022-09-09T10:14:03;98511.94;;;23.65;56.84
18988;BME280;5494;51.796;10.952;2022-09-09T10:16:50;98495.59;;;23.84;56.31
18988;BME280;5494;51.796;10.952;2022-09-09T10:19:30;98502.91;;;23.10;57.32
18988;BME280;5494;51.796;10.952;2022-09-09T10:22:23;98502.44;;;23.07;59.02
18988;BME280;5494;51.796;10.952;2022-09-09T10:25:22;98503.13;;;23.01;59.69
18988;BME280;5494;51.796;10.952;2022-09-09T10:28:18;98511.31;;;23.38;58.56
18988;BME280;5494;51.796;10.952;2022-09-09T10:31:11;98493.16;;;24.05;56.74
18988;BME280;5494;51.796;10.952;2022-09-09T10:33:51;98485.94;;;24.22;56.69
18988;BME280;5494;51.796;10.952;2022-09-09T10:36:26;98485.88;;;24.30;56.21
18988;BME280;5494;51.796;10.952;2022-09-09T10:39:03;98475.19;;;24.61;56.41
18988;BME280;5494;51.796;10.952;2022-09-09T10:41:44;98474.31;;;25.35;52.86
18988;BME280;5494;51.796;10.952;2022-09-09T10:44:30;98464.75;;;25.56;52.29
18988;BME280;5494;51.796;10.952;2022-09-09T10:47:39;98473.03;;;25.17;50.88
18988;BME280;5494;51.796;10.952;2022-09-09T10:50:29;98471.00;;;24.21;52.69
18988;BME280;5494;51.796;10.952;2022-09-09T10:53:35;98456.50;;;23.70;54.30
18988;BME280;5494;51.796;10.952;2022-09-09T10:56:09;98452.91;;;23.54;56.13
18988;BME280;5494;51.796;10.952;2022-09-09T10:58:47;98451.25;;;23.92;54.65
18988;BME280;5494;51.796;10.952;2022-09-09T11:01:22;98460.81;;;23.71;56.53
18988;BME280;5494;51.796;10.952;2022-09-09T11:04:01;98455.34;;;23.95;55.85
18988;BME280;5494;51.796;10.952;2022-09-09T11:06:38;98452.00;;;24.01;53.83
18988;BME280;5494;51.796;10.952;2022-09-09T11:09:15;98457.72;;;23.90;54.10
18988;BME280;5494;51.796;10.952;2022-09-09T11:11:52;98452.66;;;23.72;54.83
18988;BME280;5494;51.796;10.952;2022-09-09T11:14:29;98455.19;;;23.66;54.25
18988;BME280;5494;51.796;10.952;2022-09-09T11:17:10;98456.97;;;23.73;53.36
18988;BME280;5494;51.796;10.952;2022-09-09T11:19:43;98458.75;;;23.81;53.91
18988;BME280;5494;51.796;10.952;2022-09-09T11:22:25;98455.91;;;23.90;53.28
18988;BME280;5494;51.796;10.952;2022-09-09T11:25:04;98456.84;;;23.67;53.50
18988;BME280;5494;51.796;10.952;2022-09-09T11:27:54;98454.16;;;23.75;54.27
18988;BME280;5494;51.796;10.952;2022-09-09T11:30:42;98453.94;;;23.84;54.09
18988;BME280;5494;51.796;10.952;2022-09-09T11:33:55;98455.97;;;24.05;54.00
18988;BME280;5494;51.796;10.952;2022-09-09T11:36:59;98450.91;;;24.18;53.28
18988;BME280;5494;51.796;10.952;2022-09-09T11:40:08;98446.91;;;24.45;53.12
18988;BME280;5494;51.796;10.952;2022-09-09T11:42:43;98446.91;;;24.22;53.10
18988;BME280;5494;51.796;10.952;2022-09-09T11:45:23;98446.19;;;24.28;52.67
18988;BME280;5494;51.796;10.952;2022-09-09T11:47:55;98451.56;;;24.20;53.84
18988;BME280;5494;51.796;10.952;2022-09-09T11:50:34;98449.00;;;24.04;53.18
18988;BME280;5494;51.796;10.952;2022-09-09T11:53:20;98445.34;;;24.05;53.87
18988;BME280;5494;51.796;10.952;2022-09-09T11:56:09;98453.28;;;23.82;55.00
18988;BME280;5494;51.796;10.952;2022-09-09T11:58:44;98437.88;;;23.78;54.30
18988;BME280;5494;51.796;10.952;2022-09-09T12:01:27;98437.50;;;23.81;55.35
18988;BME280;5494;51.796;10.952;2022-09-09T12:04:13;98444.13;;;23.54;53.34
18988;BME280;5494;51.796;10.952;2022-09-09T12:06:53;98445.94;;;23.45;53.62
18988;BME280;5494;51.796;10.952;2022-09-09T12:09:32;98440.66;;;23.37;53.69
18988;BME280;5494;51.796;10.952;2022-09-09T12:12:18;98443.16;;;23.39;52.15
18988;BME280;5494;51.796;10.952;2022-09-09T12:15:26;98444.66;;;23.41;51.59
18988;BME280;5494;51.796;10.952;2022-09-09T12:17:58;98442.69;;;23.35;52.73
18988;BME280;5494;51.796;10.952;2022-09-09T12:20:34;98449.28;;;23.39;51.44
18988;BME280;5494;51.796;10.952;2022-09-09T12:23:17;98441.00;;;23.50;52.63
18988;BME280;5494;51.796;10.952;2022-09-09T12:26:04;98436.03;;;23.47;51.03
18988;BME280;5494;51.796;10.952;2022-09-09T12:28:54;98439.19;;;23.51;51.80
18988;BME280;5494;51.796;10.952;2022-09-09T12:31:33;98426.50;;;23.22;52.34
18988;BME280;5494;51.796;10.952;2022-09-09T12:34:11;98429.84;;;23.08;53.18
18988;BME280;5494;51.796;10.952;2022-09-09T12:36:47;98431.50;;;23.09;52.03
18988;BME280;5494;51.796;10.952;2022-09-09T12:39:29;98425.03;;;23.11;52.45
18988;BME280;5494;51.796;10.952;2022-09-09T12:42:02;98422.50;;;23.26;52.97
18988;BME280;5494;51.796;10.952;2022-09-09T12:44:31;98408.81;;;23.45;51.12
18988;BME280;5494;51.796;10.952;2022-09-09T12:47:03;98411.47;;;23.45;49.54
18988;BME280;5494;51.796;10.952;2022-09-09T12:49:36;98408.34;;;23.42;51.03
18988;BME280;5494;51.796;10.952;2022-09-09T12:52:14;98406.66;;;23.57;49.95
18988;BME280;5494;51.796;10.952;2022-09-09T12:54:47;98407.91;;;23.69;50.19
18988;BME280;5494;51.796;10.952;2022-09-09T12:57:22;98410.63;;;23.84;50.38
18988;BME280;5494;51.796;10.952;2022-09-09T13:00:06;98405.84;;;24.02;46.32
18988;BME280;5494;51.796;10.952;2022-09-09T13:02:48;98420.88;;;23.87;46.63
18988;BME280;5494;51.796;10.952;2022-09-09T13:05:22;98411.50;;;23.76;46.07
18988;BME280;5494;51.796;10.952;2022-09-09T13:07:51;98415.00;;;23.77;45.89
18988;BME280;5494;51.796;10.952;2022-09-09T13:10:26;98412.38;;;23.69;46.04
18988;BME280;5494;51.796;10.952;2022-09-09T13:13:22;98419.34;;;23.70;46.92
18988;BME280;5494;51.796;10.952;2022-09-09T13:15:54;98408.94;;;23.91;45.09
18988;BME280;5494;51.796;10.952;2022-09-09T13:18:28;98415.56;;;23.64;45.24
18988;BME280;5494;51.796;10.952;2022-09-09T13:20:58;98410.31;;;23.48;46.25
18988;BME280;5494;51.796;10.952;2022-09-09T13:23:29;98414.94;;;23.54;48.19
18988;BME280;5494;51.796;10.952;2022-09-09T13:26:02;98401.19;;;23.81;47.22
18988;BME280;5494;51.796;10.952;2022-09-09T13:28:34;98404.31;;;24.08;46.65
18988;BME280;5494;51.796;10.952;2022-09-09T13:31:06;98395.09;;;24.26;45.89
18988;BME280;5494;51.796;10.952;2022-09-09T13:33:48;98395.81;;;24.35;44.16
18988;BME280;5494;51.796;10.952;2022-09-09T13:36:27;98401.47;;;24.09;45.81
18988;BME280;5494;51.796;10.952;2022-09-09T13:38:59;98396.94;;;23.95;45.33
18988;BME280;5494;51.796;10.952;2022-09-09T13:41:32;98396.09;;;23.94;44.49
18988;BME280;5494;51.796;10.952;2022-09-09T13:44:04;98387.81;;;23.98;44.54
18988;BME280;5494;51.796;10.952;2022-09-09T13:46:35;98391.16;;;23.91;45.26
18988;BME280;5494;51.796;10.952;2022-09-09T13:49:21;98392.50;;;23.87;45.98